Airfield :
LOGIN :

Register | Disclaimer

   EN    FR    IT 

 










Legend :    VFR   Marginal VFR   IFR   Intensive IFR   Very Intensive IFR
Visi :
Ceiling :
>= 8 km
>= 3000ft
5 to 8 km
1000 to 3000 ft
1500m to 5 km
500 to 1000 ft
800 to 1500m
200 to 500 ft
< 800m
< 200 ft
Symbols :   Thunderstorms  Fog  Heavy snow  Heavy precipitations  Wind > 20 kt
SIGMETs :     Misc.  Thunderstorms  Icing  Turbulence  Mountain Waves  Volcanic Ashes






- Airport Elevation : 1367 ft
- IATA code : FDH


EDNY - Friedrichshafen

CURRENT METAR :
  • 162320Z AUTO 14004KT 1600 // FEW006/// SCT013/// OVC015/// M04/M05 Q1019

EXPIRED METARs :
  • 162250Z AUTO 15006KT 2800 // FEW015/// BKN034/// OVC040/// M04/M05 Q1020
  • 162220Z AUTO 16004KT 120V180 7000 // BKN021/// BKN068/// OVC096/// M04/M05 Q1020
  • 162150Z AUTO VRB02KT 5000 // FEW011/// OVC022/// M04/M05 Q1021
  • 162120Z AUTO VRB01KT 6000 // FEW010/// OVC130/// M04/M05 Q1021
  • 162050Z AUTO VRB01KT 8000 // FEW009/// BKN130/// M04/M05 Q1021

TAF TAF EDNY
Valid from the 16 at 18:00 until the 17 at 18:00 UTC


161700Z 1618/1718 VRB03KT 9000 BKN009
PROB40
TEMPO 1618/1624 1200 BCFG SCT009
BECMG 1623/1701 2000 -SN
PROB40
TEMPO 1701/1718 0800 SN VV004



MET'MAP, your aeronautical weather chart ! - Copyright ORBIFLY December 2007 - Disclaimer

ORBIFLY MET'MAP TEAM :

Programming & Development : Alexandra Zaïnal
Concept & original design : Baudouin d'Aumeries
Assistance for programming : Marc-Olivier Méhu
Technical & hardware support : Manuel Goepfert

Contact : metmap@orbifly.com




SOURCES & CREDITS :

   NOAA